createdAt,value
2023-02-21T00:01:15.590Z,9.95
2023-02-21T00:04:01.104Z,9.96
2023-02-21T00:06:46.749Z,9.95
2023-02-21T00:09:31.779Z,9.93
2023-02-21T00:12:17.611Z,9.92
2023-02-21T00:15:03.293Z,9.92
2023-02-21T00:17:49.949Z,9.92
2023-02-21T00:20:35.170Z,9.92
2023-02-21T00:23:20.810Z,9.93
2023-02-21T00:26:06.106Z,9.93
2023-02-21T00:28:52.439Z,9.94
2023-02-21T00:31:43.210Z,9.95
2023-02-21T00:34:30.038Z,9.95
2023-02-21T00:37:15.591Z,9.94
2023-02-21T00:40:00.774Z,9.91
2023-02-21T00:42:46.685Z,9.90
2023-02-21T00:45:31.956Z,9.88
2023-02-21T00:48:17.257Z,9.87
2023-02-21T00:51:03.599Z,9.87
2023-02-21T00:53:48.624Z,9.88
2023-02-21T00:56:33.645Z,9.89
2023-02-21T00:59:19.015Z,9.89
2023-02-21T01:02:04.042Z,9.87
2023-02-21T01:04:49.231Z,9.88
2023-02-21T01:07:36.021Z,9.87
2023-02-21T01:10:21.237Z,9.86
2023-02-21T01:13:06.575Z,9.86
2023-02-21T01:15:51.675Z,9.86
2023-02-21T01:18:36.910Z,9.86
2023-02-21T01:21:22.401Z,9.85
2023-02-21T01:24:09.521Z,9.85
2023-02-21T01:26:54.604Z,9.84
2023-02-21T01:29:39.828Z,9.82
2023-02-21T01:32:25.063Z,9.83
2023-02-21T01:35:10.559Z,9.82
2023-02-21T01:37:58.033Z,9.82
2023-02-21T01:40:50.000Z,9.82
2023-02-21T01:43:37.697Z,9.83
2023-02-21T01:46:23.737Z,9.84
2023-02-21T01:49:13.271Z,9.85
2023-02-21T01:52:01.013Z,9.83
2023-02-21T01:54:51.659Z,9.83
2023-02-21T01:57:39.612Z,9.82
2023-02-21T02:00:28.136Z,9.82
2023-02-21T02:03:16.117Z,9.83
2023-02-21T02:06:04.757Z,9.82
2023-02-21T02:08:51.218Z,9.82
2023-02-21T02:11:51.853Z,9.80
2023-02-21T02:14:37.147Z,9.80
2023-02-21T02:17:10.643Z,9.82
2023-02-21T02:20:16.218Z,9.82
2023-02-21T02:23:06.774Z,9.83
2023-02-21T02:26:15.498Z,9.83
2023-02-21T02:29:01.773Z,9.83
2023-02-21T02:31:50.936Z,9.82
2023-02-21T02:34:49.555Z,9.82
2023-02-21T02:37:22.248Z,9.80
2023-02-21T02:39:56.151Z,9.82
2023-02-21T02:42:33.823Z,9.81
2023-02-21T02:45:05.937Z,9.81
2023-02-21T02:47:37.547Z,9.81
2023-02-21T02:50:08.389Z,9.81
2023-02-21T02:52:35.524Z,9.81
2023-02-21T02:55:04.891Z,9.82
2023-02-21T02:57:40.806Z,9.81
2023-02-21T03:00:10.826Z,9.82
2023-02-21T03:02:51.223Z,9.80
2023-02-21T03:05:38.148Z,9.78
2023-02-21T03:08:13.157Z,9.79
2023-02-21T03:10:48.313Z,9.78
2023-02-21T03:13:21.943Z,9.80
2023-02-21T03:15:55.892Z,9.80
2023-02-21T03:18:33.668Z,9.79
2023-02-21T03:21:03.949Z,9.79
2023-02-21T03:23:34.687Z,9.80
2023-02-21T03:26:05.030Z,9.81
2023-02-21T03:28:33.284Z,9.83
2023-02-21T03:31:02.340Z,9.83
2023-02-21T03:33:29.147Z,9.83
2023-02-21T03:35:58.914Z,9.82
2023-02-21T03:38:29.681Z,9.82
2023-02-21T03:40:57.632Z,9.80
2023-02-21T03:43:24.319Z,9.80
2023-02-21T03:45:51.175Z,9.81
2023-02-21T03:48:31.108Z,9.80
2023-02-21T03:51:00.575Z,9.81
2023-02-21T03:53:28.931Z,9.81
2023-02-21T03:55:55.971Z,9.81
2023-02-21T03:58:22.952Z,9.78
2023-02-21T04:00:51.566Z,9.78
2023-02-21T04:03:18.418Z,9.77
2023-02-21T04:05:45.204Z,9.76
2023-02-21T04:08:12.308Z,9.77
2023-02-21T04:10:51.313Z,9.76
2023-02-21T04:13:20.080Z,9.77
2023-02-21T04:15:47.078Z,9.77
2023-02-21T04:18:32.542Z,9.77
2023-02-21T04:20:59.313Z,9.78
2023-02-21T04:23:26.120Z,9.76
2023-02-21T04:25:55.532Z,9.77
2023-02-21T04:28:22.441Z,9.77
2023-02-21T04:30:49.288Z,9.77
2023-02-21T04:33:16.113Z,9.76
2023-02-21T04:35:43.007Z,9.77
2023-02-21T04:38:09.828Z,9.77
2023-02-21T04:40:36.720Z,9.77
2023-02-21T04:43:04.953Z,9.78
2023-02-21T04:45:31.855Z,9.77
2023-02-21T04:47:58.670Z,9.77
2023-02-21T04:50:25.432Z,9.75
2023-02-21T04:52:52.159Z,9.74
2023-02-21T04:55:18.914Z,9.74
2023-02-21T04:57:45.940Z,9.73
2023-02-21T05:00:16.500Z,9.74
2023-02-21T05:02:43.638Z,9.76
2023-02-21T05:05:10.703Z,9.78
2023-02-21T05:07:37.564Z,9.76
2023-02-21T05:10:05.658Z,9.75
2023-02-21T05:12:32.917Z,9.76
2023-02-21T05:14:59.638Z,9.76
2023-02-21T05:17:28.038Z,9.78
2023-02-21T05:19:55.143Z,9.78
2023-02-21T05:22:22.565Z,9.78
2023-02-21T05:24:49.992Z,9.77
2023-02-21T05:27:18.664Z,9.74
2023-02-21T05:29:47.952Z,9.74
2023-02-21T05:32:14.921Z,9.74
2023-02-21T05:34:44.650Z,9.74
2023-02-21T05:37:11.593Z,9.72
2023-02-21T05:39:44.292Z,9.71
2023-02-21T05:42:13.817Z,9.72
2023-02-21T05:44:40.544Z,9.72
2023-02-21T05:47:07.359Z,9.73
2023-02-21T05:49:34.202Z,9.74
2023-02-21T05:52:02.453Z,9.73
2023-02-21T05:54:29.361Z,9.73
2023-02-21T05:56:56.136Z,9.71
2023-02-21T05:59:23.170Z,9.71
2023-02-21T06:01:50.459Z,9.70
2023-02-21T06:04:18.163Z,9.70
2023-02-21T06:06:45.673Z,9.71
2023-02-21T06:09:13.986Z,9.72
2023-02-21T06:11:40.879Z,9.73
2023-02-21T06:14:12.901Z,9.72
2023-02-21T06:16:40.050Z,9.70
2023-02-21T06:19:08.954Z,9.69
2023-02-21T06:21:37.447Z,9.70
2023-02-21T06:24:04.863Z,9.70
2023-02-21T06:26:33.190Z,9.70
2023-02-21T06:29:00.001Z,9.68
2023-02-21T06:31:26.906Z,9.69
2023-02-21T06:33:53.820Z,9.68
2023-02-21T06:36:24.699Z,9.67
2023-02-21T06:38:55.182Z,9.66
2023-02-21T06:41:27.313Z,9.65
2023-02-21T06:43:56.721Z,9.64
2023-02-21T06:46:25.978Z,9.65
2023-02-21T06:48:53.009Z,9.64
2023-02-21T06:51:20.219Z,9.63
2023-02-21T06:53:50.132Z,9.63
2023-02-21T06:56:17.114Z,9.64
2023-02-21T06:58:43.998Z,9.63
2023-02-21T07:01:12.372Z,9.63
2023-02-21T07:03:40.177Z,9.63
2023-02-21T07:06:07.144Z,9.63
2023-02-21T07:08:34.063Z,9.63
2023-02-21T07:11:00.978Z,9.62
2023-02-21T07:13:27.752Z,9.62
2023-02-21T07:15:55.007Z,9.62
2023-02-21T07:18:23.434Z,9.63
2023-02-21T07:20:50.253Z,9.63
2023-02-21T07:23:17.111Z,9.63
2023-02-21T07:25:43.872Z,9.63
2023-02-21T07:28:11.653Z,9.63
2023-02-21T07:30:38.488Z,9.61
2023-02-21T07:33:06.298Z,9.62
2023-02-21T07:35:34.837Z,9.61
2023-02-21T07:38:01.647Z,9.61
2023-02-21T07:40:28.587Z,9.61
2023-02-21T07:42:55.344Z,9.61
2023-02-21T07:45:22.097Z,9.59
2023-02-21T07:47:51.090Z,9.60
2023-02-21T07:50:18.028Z,9.60
2023-02-21T07:52:47.048Z,9.60
2023-02-21T07:55:14.647Z,9.59
2023-02-21T07:57:41.453Z,9.60
2023-02-21T08:00:09.556Z,9.61
2023-02-21T08:02:36.408Z,9.61
2023-02-21T08:05:05.005Z,9.62
2023-02-21T08:07:32.099Z,9.62
2023-02-21T08:10:00.165Z,9.61
2023-02-21T08:12:27.066Z,9.61
2023-02-21T08:14:53.753Z,9.61
2023-02-21T08:17:20.616Z,9.60
2023-02-21T08:19:47.448Z,9.59
2023-02-21T08:22:14.260Z,9.58
2023-02-21T08:24:41.053Z,9.58
2023-02-21T08:27:09.323Z,9.59
2023-02-21T08:29:36.145Z,9.59
2023-02-21T08:32:03.481Z,9.59
2023-02-21T08:34:30.381Z,9.60
2023-02-21T08:36:57.417Z,9.60
2023-02-21T08:39:24.499Z,9.57
2023-02-21T08:41:52.502Z,9.57
2023-02-21T08:44:23.786Z,9.57
2023-02-21T08:46:50.726Z,9.58
2023-02-21T08:49:17.559Z,9.59
2023-02-21T08:51:44.512Z,9.59
2023-02-21T08:54:11.212Z,9.60
2023-02-21T08:56:38.125Z,9.60
2023-02-21T08:59:05.797Z,9.61
2023-02-21T09:01:35.547Z,9.61
2023-02-21T09:04:02.946Z,9.61
2023-02-21T09:06:30.071Z,9.62
2023-02-21T09:08:57.051Z,9.65
2023-02-21T09:11:23.945Z,9.65
2023-02-21T09:13:50.855Z,9.66
2023-02-21T09:16:17.638Z,9.67
2023-02-21T09:18:54.231Z,9.69
2023-02-21T09:21:21.067Z,9.71
2023-02-21T09:23:47.725Z,9.70
2023-02-21T09:26:15.659Z,9.70
2023-02-21T09:28:43.843Z,9.72
2023-02-21T09:31:10.698Z,9.72
2023-02-21T09:33:41.086Z,9.74
2023-02-21T09:36:10.332Z,9.75
2023-02-21T09:38:37.051Z,9.76
2023-02-21T09:41:07.107Z,9.78
2023-02-21T09:43:36.750Z,9.79
2023-02-21T09:46:07.189Z,9.79
2023-02-21T09:48:34.207Z,9.80
2023-02-21T09:51:05.477Z,9.81
2023-02-21T09:53:36.588Z,9.81
2023-02-21T09:56:07.803Z,9.82
2023-02-21T09:58:39.140Z,9.84
2023-02-21T10:01:13.605Z,9.85
2023-02-21T10:03:47.111Z,9.86
2023-02-21T10:06:24.263Z,9.86
2023-02-21T10:08:59.253Z,9.88
2023-02-21T10:11:36.871Z,9.88
2023-02-21T10:14:18.347Z,9.89
2023-02-21T10:16:54.017Z,9.90
2023-02-21T10:19:26.227Z,9.89
2023-02-21T10:21:55.255Z,9.90
2023-02-21T10:24:25.903Z,9.91
2023-02-21T10:26:59.124Z,9.91
2023-02-21T10:29:33.311Z,9.93
2023-02-21T10:32:03.500Z,9.92
2023-02-21T10:34:32.765Z,9.93
2023-02-21T10:37:06.856Z,9.94
2023-02-21T10:39:41.933Z,9.93
2023-02-21T10:42:18.721Z,9.95
2023-02-21T10:44:46.429Z,9.96
2023-02-21T10:47:19.743Z,10.00
2023-02-21T10:49:50.747Z,10.01
2023-02-21T10:52:22.554Z,10.01
2023-02-21T10:55:04.077Z,10.01
2023-02-21T10:57:33.850Z,10.00
2023-02-21T11:00:10.088Z,10.01
2023-02-21T11:02:40.454Z,10.01
2023-02-21T11:05:11.827Z,10.01
2023-02-21T11:07:38.920Z,10.01
2023-02-21T11:10:30.270Z,10.03
2023-02-21T11:13:07.084Z,10.05
2023-02-21T11:15:34.514Z,10.06
2023-02-21T11:18:14.483Z,10.08
2023-02-21T11:20:41.320Z,10.09
2023-02-21T11:23:23.314Z,10.11
2023-02-21T11:25:57.705Z,10.13
2023-02-21T11:28:25.244Z,10.14
2023-02-21T11:31:07.057Z,10.14
2023-02-21T11:33:37.625Z,10.16
2023-02-21T11:36:12.307Z,10.17
2023-02-21T11:38:47.316Z,10.17
2023-02-21T11:41:27.260Z,10.21
2023-02-21T11:43:55.372Z,10.20
2023-02-21T11:46:35.234Z,10.19
2023-02-21T11:49:08.248Z,10.18
2023-02-21T11:51:41.708Z,10.18
2023-02-21T11:54:08.842Z,10.17
2023-02-21T11:56:47.079Z,10.18
2023-02-21T11:59:24.176Z,10.19
2023-02-21T12:02:04.080Z,10.18
2023-02-21T12:04:43.009Z,10.19
2023-02-21T12:07:18.164Z,10.20
2023-02-21T12:09:53.071Z,10.21
2023-02-21T12:12:41.108Z,10.20
2023-02-21T12:15:21.614Z,10.21
2023-02-21T12:18:08.143Z,10.20
2023-02-21T12:20:55.213Z,10.19
2023-02-21T12:23:29.605Z,10.20
2023-02-21T12:26:28.660Z,10.20
2023-02-21T12:29:09.545Z,10.18
2023-02-21T12:31:54.078Z,10.15
2023-02-21T12:34:39.048Z,10.14
2023-02-21T12:37:29.559Z,10.13
2023-02-21T12:40:09.825Z,10.12
2023-02-21T12:42:49.949Z,10.13
2023-02-21T12:45:43.888Z,10.13
2023-02-21T12:48:18.229Z,10.11
2023-02-21T12:50:49.552Z,10.11
2023-02-21T12:53:19.408Z,10.12
2023-02-21T12:55:49.310Z,10.13
2023-02-21T12:58:23.771Z,10.13
2023-02-21T13:00:56.011Z,10.15
2023-02-21T13:03:36.847Z,10.16
2023-02-21T13:06:09.211Z,10.16
2023-02-21T13:08:52.600Z,10.16
2023-02-21T13:11:25.119Z,10.18
2023-02-21T13:13:51.776Z,10.18
2023-02-21T13:16:20.951Z,10.20
2023-02-21T13:18:59.394Z,10.23
2023-02-21T13:21:39.886Z,10.25
2023-02-21T13:24:14.660Z,10.27
2023-02-21T13:26:52.363Z,10.28
2023-02-21T13:29:20.083Z,10.29
2023-02-21T13:31:55.662Z,10.30
2023-02-21T13:34:26.948Z,10.31
2023-02-21T13:36:54.101Z,10.30
2023-02-21T13:39:31.790Z,10.31
2023-02-21T13:42:06.063Z,10.33
2023-02-21T13:44:35.328Z,10.34
2023-02-21T13:47:14.014Z,10.34
2023-02-21T13:49:59.026Z,10.35
2023-02-21T13:53:13.235Z,10.36
2023-02-21T13:55:40.611Z,10.33
2023-02-21T13:58:36.377Z,10.35
2023-02-21T14:01:22.801Z,10.35
2023-02-21T14:03:53.633Z,10.36
2023-02-21T14:06:35.808Z,10.36
2023-02-21T14:09:15.414Z,10.38
2023-02-21T14:11:47.669Z,10.40
2023-02-21T14:14:24.668Z,10.40
2023-02-21T14:16:59.109Z,10.40
2023-02-21T14:19:35.884Z,10.42
2023-02-21T14:22:09.149Z,10.43
2023-02-21T14:24:38.624Z,10.41
2023-02-21T14:27:33.555Z,10.42
2023-02-21T14:30:32.320Z,10.43
2023-02-21T14:33:24.941Z,10.41
2023-02-21T14:36:00.260Z,10.43
2023-02-21T14:38:30.832Z,10.42
2023-02-21T14:41:05.987Z,10.41
2023-02-21T14:43:46.664Z,10.41
2023-02-21T14:46:34.796Z,10.40
2023-02-21T14:49:31.115Z,10.41
2023-02-21T14:52:38.486Z,10.43
2023-02-21T14:55:40.646Z,10.41
2023-02-21T14:58:41.347Z,10.41
2023-02-21T15:01:16.438Z,10.41
2023-02-21T15:03:48.414Z,10.43
2023-02-21T15:06:21.031Z,10.41
2023-02-21T15:08:51.775Z,10.43
2023-02-21T15:11:26.624Z,10.41
2023-02-21T15:14:14.673Z,10.42
2023-02-21T15:16:45.132Z,10.43
2023-02-21T15:19:21.656Z,10.44
2023-02-21T15:21:48.661Z,10.43
2023-02-21T15:24:17.496Z,10.45
2023-02-21T15:26:44.356Z,10.46
2023-02-21T15:29:13.083Z,10.48
2023-02-21T15:31:43.960Z,10.51
2023-02-21T15:34:18.409Z,10.51
2023-02-21T15:36:47.714Z,10.51
2023-02-21T15:39:23.909Z,10.50
2023-02-21T15:41:53.913Z,10.51
2023-02-21T15:44:25.522Z,10.51
2023-02-21T15:46:56.329Z,10.51
2023-02-21T15:49:25.988Z,10.52
2023-02-21T15:51:53.190Z,10.51
2023-02-21T15:54:28.290Z,10.51
2023-02-21T15:57:16.917Z,10.51
2023-02-21T15:59:43.680Z,10.50
2023-02-21T16:02:16.369Z,10.49
2023-02-21T16:04:45.439Z,10.47
2023-02-21T16:07:20.922Z,10.47
2023-02-21T16:09:50.986Z,10.46
2023-02-21T16:12:36.756Z,10.43
2023-02-21T16:15:08.350Z,10.41
2023-02-21T16:17:37.859Z,10.36
2023-02-21T16:20:16.846Z,10.38
2023-02-21T16:23:06.725Z,10.38
2023-02-21T16:25:35.818Z,10.36
2023-02-21T16:28:02.728Z,10.36
2023-02-21T16:30:31.515Z,10.36
2023-02-21T16:33:01.462Z,10.36
2023-02-21T16:35:28.822Z,10.34
2023-02-21T16:37:57.170Z,10.34
2023-02-21T16:40:27.705Z,10.33
2023-02-21T16:42:57.008Z,10.31
2023-02-21T16:45:24.587Z,10.30
2023-02-21T16:47:56.751Z,10.28
2023-02-21T16:50:28.710Z,10.28
2023-02-21T16:52:55.768Z,10.27
2023-02-21T16:55:22.849Z,10.27
2023-02-21T16:57:53.534Z,10.27
2023-02-21T17:00:22.886Z,10.25
2023-02-21T17:02:50.701Z,10.25
2023-02-21T17:05:24.954Z,10.26
2023-02-21T17:07:53.103Z,10.24
2023-02-21T17:10:20.333Z,10.25
2023-02-21T17:12:47.974Z,10.23
2023-02-21T17:15:15.093Z,10.24
2023-02-21T17:17:48.464Z,10.24
2023-02-21T17:20:19.495Z,10.24
2023-02-21T17:22:46.654Z,10.23
2023-02-21T17:25:13.388Z,10.22
2023-02-21T17:27:40.202Z,10.21
2023-02-21T17:30:08.425Z,10.22
2023-02-21T17:32:35.361Z,10.20
2023-02-21T17:35:03.578Z,10.22
2023-02-21T17:37:30.413Z,10.23
2023-02-21T17:39:57.649Z,10.22
2023-02-21T17:42:25.709Z,10.22
2023-02-21T17:44:53.347Z,10.21
2023-02-21T17:47:22.376Z,10.20
2023-02-21T17:49:50.244Z,10.20
2023-02-21T17:52:18.552Z,10.21
2023-02-21T17:54:45.321Z,10.20
2023-02-21T17:57:13.644Z,10.22
2023-02-21T17:59:40.510Z,10.21
2023-02-21T18:02:10.870Z,10.21
2023-02-21T18:04:37.878Z,10.20
2023-02-21T18:07:05.319Z,10.18
2023-02-21T18:09:38.439Z,10.18
2023-02-21T18:12:05.657Z,10.17
2023-02-21T18:14:32.462Z,10.17
2023-02-21T18:16:59.553Z,10.16
2023-02-21T18:19:26.848Z,10.15
2023-02-21T18:21:53.859Z,10.15
2023-02-21T18:24:23.014Z,10.14
2023-02-21T18:26:55.763Z,10.13
2023-02-21T18:29:22.579Z,10.12
2023-02-21T18:31:56.722Z,10.11
2023-02-21T18:34:23.536Z,10.10
2023-02-21T18:36:51.665Z,10.09
2023-02-21T18:39:19.342Z,10.08
2023-02-21T18:41:49.125Z,10.06
2023-02-21T18:44:17.220Z,10.08
2023-02-21T18:46:54.708Z,10.05
2023-02-21T18:49:22.219Z,10.06
2023-02-21T18:51:49.189Z,10.07
2023-02-21T18:54:18.264Z,10.05
2023-02-21T18:56:49.730Z,10.04
2023-02-21T18:59:21.840Z,10.04
2023-02-21T19:01:53.582Z,10.03
2023-02-21T19:04:20.401Z,10.00
2023-02-21T19:06:47.456Z,9.99
2023-02-21T19:09:14.463Z,9.99
2023-02-21T19:11:41.400Z,9.99
2023-02-21T19:14:08.930Z,9.99
2023-02-21T19:16:37.758Z,10.00
2023-02-21T19:19:04.946Z,9.99
2023-02-21T19:21:35.324Z,9.98
2023-02-21T19:24:04.169Z,9.98
2023-02-21T19:26:31.098Z,9.99
2023-02-21T19:28:59.437Z,9.98
2023-02-21T19:31:26.565Z,9.98
2023-02-21T19:33:55.047Z,9.97
2023-02-21T19:36:22.834Z,9.96
2023-02-21T19:38:49.675Z,9.94
2023-02-21T19:41:20.478Z,9.93
2023-02-21T19:43:47.726Z,9.93
2023-02-21T19:46:20.946Z,9.92
2023-02-21T19:48:48.080Z,9.92
2023-02-21T19:51:18.664Z,9.92
2023-02-21T19:53:46.133Z,9.91
2023-02-21T19:56:14.858Z,9.89
2023-02-21T19:58:44.354Z,9.87
2023-02-21T20:01:14.644Z,9.86
2023-02-21T20:03:42.305Z,9.85
2023-02-21T20:06:09.255Z,9.83
2023-02-21T20:08:37.485Z,9.84
2023-02-21T20:11:04.619Z,9.87
2023-02-21T20:13:31.424Z,9.86
2023-02-21T20:15:58.689Z,9.86
2023-02-21T20:18:25.506Z,9.85
2023-02-21T20:20:54.086Z,9.83
2023-02-21T20:23:23.680Z,9.81
2023-02-21T20:25:52.119Z,9.80
2023-02-21T20:28:20.167Z,9.77
2023-02-21T20:30:47.212Z,9.77
2023-02-21T20:33:15.295Z,9.78
2023-02-21T20:35:43.859Z,9.79
2023-02-21T20:38:13.130Z,9.77
2023-02-21T20:40:42.525Z,9.76
2023-02-21T20:43:11.147Z,9.76
2023-02-21T20:45:38.607Z,9.74
2023-02-21T20:48:08.527Z,9.74
2023-02-21T20:50:35.451Z,9.73
2023-02-21T20:53:07.371Z,9.72
2023-02-21T20:55:37.592Z,9.73
2023-02-21T20:58:05.207Z,9.73
2023-02-21T21:00:36.428Z,9.73
2023-02-21T21:03:05.359Z,9.73
2023-02-21T21:05:32.730Z,9.72
2023-02-21T21:08:09.047Z,9.71
2023-02-21T21:10:39.435Z,9.72
2023-02-21T21:13:07.014Z,9.72
2023-02-21T21:15:35.431Z,9.71
2023-02-21T21:18:02.483Z,9.71
2023-02-21T21:20:30.950Z,9.69
2023-02-21T21:22:57.910Z,9.68
2023-02-21T21:25:26.029Z,9.68
2023-02-21T21:27:53.010Z,9.68
2023-02-21T21:30:22.954Z,9.68
2023-02-21T21:32:51.349Z,9.69
2023-02-21T21:35:19.839Z,9.68
2023-02-21T21:37:48.155Z,9.66
2023-02-21T21:40:18.768Z,9.67
2023-02-21T21:42:48.910Z,9.66
2023-02-21T21:45:21.657Z,9.64
2023-02-21T21:47:52.528Z,9.63
2023-02-21T21:50:20.846Z,9.62
2023-02-21T21:52:51.087Z,9.61
2023-02-21T21:55:20.362Z,9.59
2023-02-21T21:57:53.337Z,9.58
2023-02-21T22:00:22.402Z,9.58
2023-02-21T22:02:56.956Z,9.58
2023-02-21T22:05:24.883Z,9.59
2023-02-21T22:07:52.386Z,9.59
2023-02-21T22:10:19.353Z,9.58
2023-02-21T22:12:49.995Z,9.57
2023-02-21T22:15:21.375Z,9.58
2023-02-21T22:17:48.366Z,9.58
2023-02-21T22:20:19.404Z,9.58
2023-02-21T22:22:49.090Z,9.57
2023-02-21T22:25:16.176Z,9.57
2023-02-21T22:27:43.170Z,9.57
2023-02-21T22:30:13.752Z,9.56
2023-02-21T22:32:42.809Z,9.56
2023-02-21T22:35:18.185Z,9.54
2023-02-21T22:37:47.789Z,9.52
2023-02-21T22:40:19.924Z,9.48
2023-02-21T22:42:46.802Z,9.46
2023-02-21T22:45:13.824Z,9.45
2023-02-21T22:47:40.739Z,9.44
2023-02-21T22:50:08.207Z,9.44
2023-02-21T22:52:35.408Z,9.42
2023-02-21T22:55:04.214Z,9.41
2023-02-21T22:57:31.026Z,9.39
2023-02-21T22:59:57.986Z,9.38
2023-02-21T23:02:29.580Z,9.40
2023-02-21T23:04:58.289Z,9.38
2023-02-21T23:07:25.126Z,9.33
2023-02-21T23:09:52.165Z,9.32
2023-02-21T23:12:21.361Z,9.30
2023-02-21T23:14:48.192Z,9.27
2023-02-21T23:17:15.564Z,9.28
2023-02-21T23:19:42.577Z,9.27
2023-02-21T23:22:10.070Z,9.24
2023-02-21T23:24:37.182Z,9.21
2023-02-21T23:27:08.692Z,9.19
2023-02-21T23:29:39.414Z,9.15
2023-02-21T23:32:09.864Z,9.13
2023-02-21T23:34:40.704Z,9.13
2023-02-21T23:37:08.425Z,9.11
2023-02-21T23:39:35.284Z,9.12
2023-02-21T23:42:02.120Z,9.06
2023-02-21T23:44:28.931Z,9.04
2023-02-21T23:46:57.090Z,9.04
2023-02-21T23:49:25.108Z,9.01
2023-02-21T23:51:53.733Z,8.99
2023-02-21T23:54:21.207Z,8.98
2023-02-21T23:56:48.766Z,8.98
2023-02-21T23:59:16.645Z,8.96
